sensor_id;sensor_type;location;lat;lon;timestamp;pressure;altitude;pressure_sealevel;temperature;humidity
59971;BME280;45825;45.434;9.116;2023-08-01T00:00:45;99550.16;;;26.69;85.14
59971;BME280;45825;45.434;9.116;2023-08-01T00:03:10;99547.47;;;26.89;84.18
59971;BME280;45825;45.434;9.116;2023-08-01T00:05:36;99545.16;;;26.80;84.81
59971;BME280;45825;45.434;9.116;2023-08-01T00:08:02;99543.94;;;26.96;83.73
59971;BME280;45825;45.434;9.116;2023-08-01T00:10:28;99538.53;;;26.89;83.95
59971;BME280;45825;45.434;9.116;2023-08-01T00:12:53;99536.25;;;26.99;83.50
59971;BME280;45825;45.434;9.116;2023-08-01T00:15:18;99544.75;;;26.76;85.93
59971;BME280;45825;45.434;9.116;2023-08-01T00:17:43;99543.56;;;26.45;90.97
59971;BME280;45825;45.434;9.116;2023-08-01T00:20:09;99535.63;;;26.84;86.46
59971;BME280;45825;45.434;9.116;2023-08-01T00:22:34;99534.19;;;26.88;85.69
59971;BME280;45825;45.434;9.116;2023-08-01T00:25:00;99525.88;;;26.83;86.42
59971;BME280;45825;45.434;9.116;2023-08-01T00:27:25;99532.94;;;26.90;85.75
59971;BME280;45825;45.434;9.116;2023-08-01T00:29:50;99528.78;;;26.81;86.65
59971;BME280;45825;45.434;9.116;2023-08-01T00:32:16;99538.13;;;26.31;92.37
59971;BME280;45825;45.434;9.116;2023-08-01T00:34:41;99532.13;;;26.49;91.96
59971;BME280;45825;45.434;9.116;2023-08-01T00:37:06;99529.00;;;26.59;89.79
59971;BME280;45825;45.434;9.116;2023-08-01T00:39:32;99522.38;;;26.55;90.69
59971;BME280;45825;45.434;9.116;2023-08-01T00:41:57;99517.19;;;26.54;91.32
59971;BME280;45825;45.434;9.116;2023-08-01T00:44:22;99515.91;;;26.16;95.44
59971;BME280;45825;45.434;9.116;2023-08-01T00:46:48;99504.13;;;26.24;95.01
59971;BME280;45825;45.434;9.116;2023-08-01T00:49:14;99510.16;;;26.53;92.70
59971;BME280;45825;45.434;9.116;2023-08-01T00:51:39;99506.38;;;26.67;90.31
59971;BME280;45825;45.434;9.116;2023-08-01T00:54:06;99496.03;;;26.64;91.00
59971;BME280;45825;45.434;9.116;2023-08-01T00:56:31;99499.13;;;26.54;91.69
59971;BME280;45825;45.434;9.116;2023-08-01T00:58:56;99504.94;;;26.58;91.85
59971;BME280;45825;45.434;9.116;2023-08-01T01:01:22;99507.22;;;26.54;92.47
59971;BME280;45825;45.434;9.116;2023-08-01T01:03:48;99495.00;;;26.25;96.30
59971;BME280;45825;45.434;9.116;2023-08-01T01:06:19;99497.06;;;26.63;92.81
59971;BME280;45825;45.434;9.116;2023-08-01T01:08:47;99488.34;;;26.61;92.42
59971;BME280;45825;45.434;9.116;2023-08-01T01:11:13;99485.66;;;26.47;93.96
59971;BME280;45825;45.434;9.116;2023-08-01T01:13:38;99482.34;;;26.39;94.46
59971;BME280;45825;45.434;9.116;2023-08-01T01:16:03;99487.31;;;26.35;94.83
59971;BME280;45825;45.434;9.116;2023-08-01T01:18:29;99486.91;;;26.38;95.04
59971;BME280;45825;45.434;9.116;2023-08-01T01:20:54;99489.59;;;26.31;96.18
59971;BME280;45825;45.434;9.116;2023-08-01T01:23:21;99488.69;;;25.70;100.00
59971;BME280;45825;45.434;9.116;2023-08-01T01:25:47;99502.16;;;25.63;100.00
59971;BME280;45825;45.434;9.116;2023-08-01T01:28:14;99483.75;;;25.94;100.00
59971;BME280;45825;45.434;9.116;2023-08-01T01:30:41;99474.06;;;26.20;100.00
59971;BME280;45825;45.434;9.116;2023-08-01T01:33:08;99469.91;;;26.31;100.00
59971;BME280;45825;45.434;9.116;2023-08-01T01:35:34;99470.34;;;26.34;99.42
59971;BME280;45825;45.434;9.116;2023-08-01T01:38:00;99464.47;;;25.97;100.00
59971;BME280;45825;45.434;9.116;2023-08-01T01:40:29;99463.03;;;26.08;100.00
59971;BME280;45825;45.434;9.116;2023-08-01T01:42:54;99454.97;;;26.35;100.00
59971;BME280;45825;45.434;9.116;2023-08-01T01:45:20;99451.63;;;26.46;98.73
59971;BME280;45825;45.434;9.116;2023-08-01T01:47:45;99430.50;;;26.43;98.70
59971;BME280;45825;45.434;9.116;2023-08-01T01:50:10;99429.47;;;26.44;99.64
59971;BME280;45825;45.434;9.116;2023-08-01T01:52:35;99429.03;;;25.80;100.00
59971;BME280;45825;45.434;9.116;2023-08-01T01:55:01;99421.59;;;26.09;100.00
59971;BME280;45825;45.434;9.116;2023-08-01T01:57:26;99431.31;;;26.17;100.00
59971;BME280;45825;45.434;9.116;2023-08-01T01:59:51;99422.38;;;26.16;100.00
59971;BME280;45825;45.434;9.116;2023-08-01T02:02:16;99414.94;;;26.18;100.00
59971;BME280;45825;45.434;9.116;2023-08-01T02:04:42;99417.22;;;26.15;100.00
59971;BME280;45825;45.434;9.116;2023-08-01T02:07:07;99423.03;;;26.18;100.00
59971;BME280;45825;45.434;9.116;2023-08-01T02:09:33;99427.56;;;25.64;100.00
59971;BME280;45825;45.434;9.116;2023-08-01T02:11:58;99432.09;;;25.57;100.00
59971;BME280;45825;45.434;9.116;2023-08-01T02:14:23;99441.03;;;25.77;100.00
59971;BME280;45825;45.434;9.116;2023-08-01T02:16:49;99427.19;;;25.94;100.00
59971;BME280;45825;45.434;9.116;2023-08-01T02:19:14;99431.34;;;26.03;100.00
59971;BME280;45825;45.434;9.116;2023-08-01T02:21:39;99431.09;;;26.05;100.00
59971;BME280;45825;45.434;9.116;2023-08-01T02:24:05;99425.72;;;26.05;100.00
59971;BME280;45825;45.434;9.116;2023-08-01T02:26:30;99420.09;;;25.59;100.00
59971;BME280;45825;45.434;9.116;2023-08-01T02:28:56;99423.63;;;25.60;100.00
59971;BME280;45825;45.434;9.116;2023-08-01T02:31:21;99435.47;;;25.86;100.00
59971;BME280;45825;45.434;9.116;2023-08-01T02:33:46;99440.84;;;25.92;100.00
59971;BME280;45825;45.434;9.116;2023-08-01T02:36:11;99437.75;;;26.02;100.00
59971;BME280;45825;45.434;9.116;2023-08-01T02:38:37;99429.88;;;26.14;100.00
59971;BME280;45825;45.434;9.116;2023-08-01T02:41:02;99419.09;;;26.14;100.00
59971;BME280;45825;45.434;9.116;2023-08-01T02:43:27;99417.03;;;25.89;100.00
59971;BME280;45825;45.434;9.116;2023-08-01T02:45:53;99411.22;;;25.79;100.00
59971;BME280;45825;45.434;9.116;2023-08-01T02:48:18;99407.69;;;26.05;100.00
59971;BME280;45825;45.434;9.116;2023-08-01T02:50:43;99417.84;;;26.03;100.00
59971;BME280;45825;45.434;9.116;2023-08-01T02:53:08;99422.00;;;26.13;100.00
59971;BME280;45825;45.434;9.116;2023-08-01T02:55:34;99415.56;;;26.14;100.00
59971;BME280;45825;45.434;9.116;2023-08-01T02:57:59;99417.19;;;25.67;100.00
59971;BME280;45825;45.434;9.116;2023-08-01T03:00:24;99418.03;;;25.68;100.00
59971;BME280;45825;45.434;9.116;2023-08-01T03:02:50;99413.91;;;25.99;100.00
59971;BME280;45825;45.434;9.116;2023-08-01T04:50:38;99367.06;;;25.87;100.00
59971;BME280;45825;45.434;9.116;2023-08-01T04:53:03;99359.41;;;25.97;100.00
59971;BME280;45825;45.434;9.116;2023-08-01T04:55:29;99362.28;;;25.95;100.00
59971;BME280;45825;45.434;9.116;2023-08-01T04:57:54;99366.44;;;25.91;100.00
59971;BME280;45825;45.434;9.116;2023-08-01T05:00:19;99356.28;;;25.93;100.00
59971;BME280;45825;45.434;9.116;2023-08-01T05:02:45;99353.59;;;25.87;100.00
59971;BME280;45825;45.434;9.116;2023-08-01T05:05:10;99348.44;;;25.85;96.31
59971;BME280;45825;45.434;9.116;2023-08-01T05:07:35;99360.84;;;25.93;94.41
59971;BME280;45825;45.434;9.116;2023-08-01T05:10:01;99351.13;;;25.92;92.80
59971;BME280;45825;45.434;9.116;2023-08-01T05:12:26;99357.75;;;25.96;90.71
59971;BME280;45825;45.434;9.116;2023-08-01T05:14:51;99361.69;;;25.93;89.48
59971;BME280;45825;45.434;9.116;2023-08-01T05:17:17;99358.97;;;25.93;88.39
59971;BME280;45825;45.434;9.116;2023-08-01T05:19:42;99348.19;;;25.93;89.52
59971;BME280;45825;45.434;9.116;2023-08-01T05:22:07;99348.63;;;25.90;87.50
59971;BME280;45825;45.434;9.116;2023-08-01T05:24:33;99343.44;;;25.95;86.58
59971;BME280;45825;45.434;9.116;2023-08-01T05:26:58;99334.97;;;25.92;87.62
59971;BME280;45825;45.434;9.116;2023-08-01T05:29:23;99348.41;;;25.99;86.60
59971;BME280;45825;45.434;9.116;2023-08-01T05:31:48;99355.47;;;26.00;85.75
59971;BME280;45825;45.434;9.116;2023-08-01T05:34:14;99355.03;;;26.09;85.09
59971;BME280;45825;45.434;9.116;2023-08-01T05:36:39;99345.31;;;26.29;86.71
59971;BME280;45825;45.434;9.116;2023-08-01T05:39:05;99341.16;;;26.26;84.41
59971;BME280;45825;45.434;9.116;2023-08-01T05:41:30;99346.53;;;26.26;84.47
59971;BME280;45825;45.434;9.116;2023-08-01T05:43:56;99353.38;;;26.29;83.99
59971;BME280;45825;45.434;9.116;2023-08-01T05:46:21;99359.38;;;26.17;84.62
59971;BME280;45825;45.434;9.116;2023-08-01T05:48:47;99359.81;;;26.01;87.52
59971;BME280;45825;45.434;9.116;2023-08-01T05:51:12;99362.94;;;25.98;87.08
59971;BME280;45825;45.434;9.116;2023-08-01T05:53:37;99368.53;;;25.96;86.81
59971;BME280;45825;45.434;9.116;2023-08-01T05:56:03;99378.88;;;26.06;88.13
59971;BME280;45825;45.434;9.116;2023-08-01T05:58:30;99378.88;;;26.06;86.91
59971;BME280;45825;45.434;9.116;2023-08-01T06:00:55;99370.38;;;26.09;86.90
59971;BME280;45825;45.434;9.116;2023-08-01T06:03:20;99369.75;;;26.00;87.63
59971;BME280;45825;45.434;9.116;2023-08-01T06:05:45;99378.69;;;25.94;88.50
59971;BME280;45825;45.434;9.116;2023-08-01T06:08:11;99377.03;;;25.93;90.55
59971;BME280;45825;45.434;9.116;2023-08-01T06:10:38;99386.75;;;26.01;90.75
59971;BME280;45825;45.434;9.116;2023-08-01T06:13:03;99369.53;;;26.08;86.20
59971;BME280;45825;45.434;9.116;2023-08-01T06:15:29;99374.94;;;26.08;87.26
59971;BME280;45825;45.434;9.116;2023-08-01T06:17:54;99376.59;;;26.09;86.63
59971;BME280;45825;45.434;9.116;2023-08-01T06:20:19;99382.81;;;26.30;83.83
59971;BME280;45825;45.434;9.116;2023-08-01T06:22:45;99396.28;;;26.10;84.48
59971;BME280;45825;45.434;9.116;2023-08-01T06:25:10;99387.78;;;26.13;85.86
59971;BME280;45825;45.434;9.116;2023-08-01T06:27:36;99382.00;;;26.23;86.80
59971;BME280;45825;45.434;9.116;2023-08-01T06:30:02;99375.16;;;26.27;87.74
59971;BME280;45825;45.434;9.116;2023-08-01T06:32:27;99372.66;;;26.39;87.20
59971;BME280;45825;45.434;9.116;2023-08-01T06:34:52;99356.03;;;26.42;84.39
59971;BME280;45825;45.434;9.116;2023-08-01T06:37:18;99349.78;;;26.48;83.82
59971;BME280;45825;45.434;9.116;2023-08-01T06:39:43;99356.81;;;26.63;84.43
59971;BME280;45825;45.434;9.116;2023-08-01T06:42:08;99355.78;;;26.64;83.34
59971;BME280;45825;45.434;9.116;2023-08-01T06:44:34;99379.03;;;26.58;83.08
59971;BME280;45825;45.434;9.116;2023-08-01T06:46:59;99364.34;;;26.34;85.01
59971;BME280;45825;45.434;9.116;2023-08-01T06:49:24;99373.91;;;26.30;86.18
59971;BME280;45825;45.434;9.116;2023-08-01T06:51:49;99372.41;;;26.47;86.67
59971;BME280;45825;45.434;9.116;2023-08-01T06:54:15;99364.50;;;26.59;85.59
59971;BME280;45825;45.434;9.116;2023-08-01T06:56:40;99353.84;;;26.71;83.19
59971;BME280;45825;45.434;9.116;2023-08-01T06:59:12;99366.28;;;26.79;82.24
59971;BME280;45825;45.434;9.116;2023-08-01T07:01:37;99358.81;;;26.88;82.81
59971;BME280;45825;45.434;9.116;2023-08-01T07:04:05;99359.66;;;26.88;82.50
59971;BME280;45825;45.434;9.116;2023-08-01T07:06:30;99358.81;;;26.88;79.62
59971;BME280;45825;45.434;9.116;2023-08-01T07:08:56;99355.63;;;27.04;79.53
59971;BME280;45825;45.434;9.116;2023-08-01T07:11:22;99354.88;;;26.84;80.13
59971;BME280;45825;45.434;9.116;2023-08-01T07:13:48;99355.06;;;26.82;80.91
59971;BME280;45825;45.434;9.116;2023-08-01T07:16:13;99346.34;;;26.87;81.00
59971;BME280;45825;45.434;9.116;2023-08-01T07:18:38;99342.63;;;26.88;81.25
59971;BME280;45825;45.434;9.116;2023-08-01T07:21:04;99342.59;;;26.95;79.93
59971;BME280;45825;45.434;9.116;2023-08-01T07:23:31;99336.38;;;26.94;80.88
59971;BME280;45825;45.434;9.116;2023-08-01T07:25:56;99327.34;;;27.07;79.17
59971;BME280;45825;45.434;9.116;2023-08-01T07:28:21;99320.34;;;26.99;78.61
59971;BME280;45825;45.434;9.116;2023-08-01T07:30:47;99312.75;;;26.89;77.76
59971;BME280;45825;45.434;9.116;2023-08-01T07:33:12;99312.44;;;27.04;77.80
59971;BME280;45825;45.434;9.116;2023-08-01T07:35:37;99321.25;;;26.80;80.11
59971;BME280;45825;45.434;9.116;2023-08-01T07:38:02;99321.88;;;26.88;80.00
59971;BME280;45825;45.434;9.116;2023-08-01T07:40:28;99320.25;;;26.74;80.39
59971;BME280;45825;45.434;9.116;2023-08-01T07:42:53;99319.19;;;26.88;79.91
59971;BME280;45825;45.434;9.116;2023-08-01T07:45:18;99322.50;;;26.84;81.08
59971;BME280;45825;45.434;9.116;2023-08-01T07:47:44;99323.94;;;26.80;81.22
59971;BME280;45825;45.434;9.116;2023-08-01T07:50:10;99323.53;;;26.76;81.72
59971;BME280;45825;45.434;9.116;2023-08-01T07:52:35;99324.94;;;26.85;81.70
59971;BME280;45825;45.434;9.116;2023-08-01T07:55:01;99329.75;;;26.83;81.21
59971;BME280;45825;45.434;9.116;2023-08-01T07:57:26;99324.94;;;26.85;80.60
59971;BME280;45825;45.434;9.116;2023-08-01T07:59:51;99329.53;;;26.85;80.23
59971;BME280;45825;45.434;9.116;2023-08-01T08:02:17;99322.34;;;26.65;81.44
59971;BME280;45825;45.434;9.116;2023-08-01T08:04:42;99316.13;;;26.64;80.93
59971;BME280;45825;45.434;9.116;2023-08-01T08:07:07;99309.06;;;26.63;82.83
59971;BME280;45825;45.434;9.116;2023-08-01T08:09:33;99310.22;;;26.42;83.35
59971;BME280;45825;45.434;9.116;2023-08-01T08:11:58;99305.03;;;26.41;83.23
59971;BME280;45825;45.434;9.116;2023-08-01T08:14:23;99300.63;;;26.53;82.66
59971;BME280;45825;45.434;9.116;2023-08-01T08:16:49;99294.47;;;26.39;84.33
59971;BME280;45825;45.434;9.116;2023-08-01T08:19:15;99294.44;;;26.46;85.43
59971;BME280;45825;45.434;9.116;2023-08-01T08:21:40;99290.47;;;26.48;83.53
59971;BME280;45825;45.434;9.116;2023-08-01T08:24:05;99290.69;;;26.47;83.77
59971;BME280;45825;45.434;9.116;2023-08-01T08:26:31;99286.56;;;26.44;83.74
59971;BME280;45825;45.434;9.116;2023-08-01T08:28:59;99293.00;;;26.43;85.32
59971;BME280;45825;45.434;9.116;2023-08-01T08:31:24;99289.25;;;26.44;85.07
59971;BME280;45825;45.434;9.116;2023-08-01T08:33:50;99283.69;;;26.32;84.55
59971;BME280;45825;45.434;9.116;2023-08-01T08:36:15;99285.13;;;26.35;83.29
59971;BME280;45825;45.434;9.116;2023-08-01T08:38:40;99294.66;;;26.38;84.06
59971;BME280;45825;45.434;9.116;2023-08-01T08:41:10;99289.03;;;26.46;83.31
59971;BME280;45825;45.434;9.116;2023-08-01T08:43:37;99294.84;;;26.43;84.04
59971;BME280;45825;45.434;9.116;2023-08-01T08:46:03;99295.84;;;26.48;84.61
59971;BME280;45825;45.434;9.116;2023-08-01T08:48:29;99298.16;;;26.52;85.54
59971;BME280;45825;45.434;9.116;2023-08-01T08:51:00;99291.28;;;26.56;85.03
59971;BME280;45825;45.434;9.116;2023-08-01T08:53:25;99288.19;;;26.52;86.08
59971;BME280;45825;45.434;9.116;2023-08-01T08:55:51;99283.78;;;26.58;85.42
59971;BME280;45825;45.434;9.116;2023-08-01T08:58:17;99271.34;;;26.57;83.20
59971;BME280;45825;45.434;9.116;2023-08-01T09:00:43;99280.28;;;26.57;81.95
59971;BME280;45825;45.434;9.116;2023-08-01T09:03:08;99281.91;;;26.65;79.86
59971;BME280;45825;45.434;9.116;2023-08-01T09:05:48;99279.66;;;26.62;79.83
59971;BME280;45825;45.434;9.116;2023-08-01T09:08:20;99269.66;;;26.62;79.84
59971;BME280;45825;45.434;9.116;2023-08-01T09:10:46;99273.69;;;26.85;76.85
59971;BME280;45825;45.434;9.116;2023-08-01T09:13:12;99264.59;;;26.80;76.77
59971;BME280;45825;45.434;9.116;2023-08-01T09:15:39;99262.53;;;26.75;76.05
59971;BME280;45825;45.434;9.116;2023-08-01T09:18:07;99267.34;;;26.73;76.10
59971;BME280;45825;45.434;9.116;2023-08-01T09:20:45;99270.47;;;26.70;80.56
59971;BME280;45825;45.434;9.116;2023-08-01T09:23:10;99262.38;;;26.70;79.98
59971;BME280;45825;45.434;9.116;2023-08-01T09:25:39;99255.69;;;26.79;79.52
59971;BME280;45825;45.434;9.116;2023-08-01T09:28:21;99258.94;;;26.95;79.26
59971;BME280;45825;45.434;9.116;2023-08-01T09:30:56;99252.72;;;26.94;75.95
59971;BME280;45825;45.434;9.116;2023-08-01T09:33:23;99245.25;;;26.96;74.92
59971;BME280;45825;45.434;9.116;2023-08-01T09:35:50;99237.25;;;27.08;75.61
59971;BME280;45825;45.434;9.116;2023-08-01T09:38:15;99238.69;;;27.11;75.48
59971;BME280;45825;45.434;9.116;2023-08-01T09:40:42;99243.94;;;27.05;74.89
59971;BME280;45825;45.434;9.116;2023-08-01T09:43:07;99230.50;;;26.92;72.78
59971;BME280;45825;45.434;9.116;2023-08-01T09:45:33;99234.50;;;26.89;73.89
59971;BME280;45825;45.434;9.116;2023-08-01T09:47:59;99234.59;;;27.01;70.99
59971;BME280;45825;45.434;9.116;2023-08-01T09:50:25;99226.41;;;26.83;71.69
59971;BME280;45825;45.434;9.116;2023-08-01T09:52:51;99220.16;;;26.89;71.77
59971;BME280;45825;45.434;9.116;2023-08-01T09:55:31;99218.72;;;26.80;72.40
59971;BME280;45825;45.434;9.116;2023-08-01T09:57:58;99217.88;;;26.86;71.75
59971;BME280;45825;45.434;9.116;2023-08-01T10:00:26;99228.66;;;26.92;72.95
59971;BME280;45825;45.434;9.116;2023-08-01T10:02:52;99221.94;;;27.02;72.08
59971;BME280;45825;45.434;9.116;2023-08-01T10:05:19;99217.16;;;27.04;71.64
59971;BME280;45825;45.434;9.116;2023-08-01T10:07:45;99214.72;;;26.96;74.47
59971;BME280;45825;45.434;9.116;2023-08-01T10:10:11;99209.50;;;27.01;73.95
59971;BME280;45825;45.434;9.116;2023-08-01T10:12:37;99215.28;;;27.04;73.99
59971;BME280;45825;45.434;9.116;2023-08-01T10:15:04;99211.81;;;26.97;73.65
59971;BME280;45825;45.434;9.116;2023-08-01T10:17:30;99201.22;;;26.96;74.33
59971;BME280;45825;45.434;9.116;2023-08-01T10:19:56;99197.41;;;27.10;74.58
59971;BME280;45825;45.434;9.116;2023-08-01T10:22:23;99187.84;;;27.33;74.06
59971;BME280;45825;45.434;9.116;2023-08-01T10:24:50;99196.34;;;27.37;72.63
59971;BME280;45825;45.434;9.116;2023-08-01T10:27:19;99201.78;;;27.30;72.49
59971;BME280;45825;45.434;9.116;2023-08-01T10:29:56;99208.56;;;27.39;72.61
59971;BME280;45825;45.434;9.116;2023-08-01T10:32:29;99196.78;;;27.59;71.97
59971;BME280;45825;45.434;9.116;2023-08-01T10:34:54;99185.00;;;27.72;69.99
59971;BME280;45825;45.434;9.116;2023-08-01T10:37:19;99194.47;;;27.81;69.41
59971;BME280;45825;45.434;9.116;2023-08-01T10:39:58;99203.25;;;27.77;71.83
59971;BME280;45825;45.434;9.116;2023-08-01T10:42:24;99199.72;;;27.76;73.20
59971;BME280;45825;45.434;9.116;2023-08-01T10:44:50;99185.91;;;28.03;71.58
59971;BME280;45825;45.434;9.116;2023-08-01T10:47:25;99180.41;;;28.28;70.82
59971;BME280;45825;45.434;9.116;2023-08-01T10:49:50;99169.72;;;28.64;68.38
59971;BME280;45825;45.434;9.116;2023-08-01T10:54:44;99148.91;;;28.77;65.80
59971;BME280;45825;45.434;9.116;2023-08-01T10:57:15;99135.81;;;29.16;64.69
59971;BME280;45825;45.434;9.116;2023-08-01T10:59:41;99135.13;;;29.33;62.44
59971;BME280;45825;45.434;9.116;2023-08-01T11:02:07;99128.41;;;29.47;62.51
59971;BME280;45825;45.434;9.116;2023-08-01T11:04:32;99132.38;;;29.80;60.90
59971;BME280;45825;45.434;9.116;2023-08-01T11:06:58;99133.41;;;29.91;59.25
59971;BME280;45825;45.434;9.116;2023-08-01T11:09:26;99125.84;;;29.93;60.58
59971;BME280;45825;45.434;9.116;2023-08-01T11:11:56;99135.50;;;29.89;58.80
59971;BME280;45825;45.434;9.116;2023-08-01T11:14:24;99121.09;;;30.01;58.35
59971;BME280;45825;45.434;9.116;2023-08-01T11:16:50;99118.72;;;29.75;60.95
59971;BME280;45825;45.434;9.116;2023-08-01T11:19:23;99105.09;;;29.99;58.01
59971;BME280;45825;45.434;9.116;2023-08-01T11:21:49;99123.38;;;29.92;57.75
59971;BME280;45825;45.434;9.116;2023-08-01T11:24:16;99108.31;;;29.84;57.96
59971;BME280;45825;45.434;9.116;2023-08-01T11:26:43;99095.06;;;30.00;58.99
59971;BME280;45825;45.434;9.116;2023-08-01T11:29:12;99092.56;;;29.69;57.74
59971;BME280;45825;45.434;9.116;2023-08-01T11:31:38;99090.22;;;29.61;59.07
59971;BME280;45825;45.434;9.116;2023-08-01T11:34:04;99098.47;;;29.42;58.57
59971;BME280;45825;45.434;9.116;2023-08-01T11:36:29;99087.91;;;29.40;59.56
59971;BME280;45825;45.434;9.116;2023-08-01T11:38:59;99086.22;;;29.63;58.88
59971;BME280;45825;45.434;9.116;2023-08-01T11:41:26;99089.19;;;29.26;59.11
59971;BME280;45825;45.434;9.116;2023-08-01T11:43:52;99080.38;;;29.54;59.04
59971;BME280;45825;45.434;9.116;2023-08-01T11:46:20;99086.25;;;29.51;60.83
59971;BME280;45825;45.434;9.116;2023-08-01T11:48:46;99098.56;;;29.71;59.83
59971;BME280;45825;45.434;9.116;2023-08-01T11:51:17;99077.97;;;29.58;59.73
59971;BME280;45825;45.434;9.116;2023-08-01T11:53:43;99071.91;;;29.80;60.07
59971;BME280;45825;45.434;9.116;2023-08-01T11:56:08;99064.38;;;29.82;58.73
59971;BME280;45825;45.434;9.116;2023-08-01T11:58:41;99073.94;;;30.02;57.06
59971;BME280;45825;45.434;9.116;2023-08-01T12:01:10;99079.91;;;30.16;56.41
59971;BME280;45825;45.434;9.116;2023-08-01T12:03:51;99082.59;;;30.28;55.78
59971;BME280;45825;45.434;9.116;2023-08-01T12:06:18;99065.72;;;29.96;55.65
59971;BME280;45825;45.434;9.116;2023-08-01T12:08:46;99073.41;;;29.59;57.29
59971;BME280;45825;45.434;9.116;2023-08-01T12:11:24;99072.59;;;29.46;58.24
59971;BME280;45825;45.434;9.116;2023-08-01T12:14:03;99088.22;;;29.56;58.25
59971;BME280;45825;45.434;9.116;2023-08-01T12:16:28;99085.88;;;29.60;58.25
59971;BME280;45825;45.434;9.116;2023-08-01T12:18:54;99076.22;;;29.40;58.28
59971;BME280;45825;45.434;9.116;2023-08-01T12:21:19;99081.28;;;29.60;57.50
59971;BME280;45825;45.434;9.116;2023-08-01T12:23:44;99089.94;;;29.74;57.61
59971;BME280;45825;45.434;9.116;2023-08-01T12:26:10;99068.59;;;29.49;58.01
59971;BME280;45825;45.434;9.116;2023-08-01T12:28:35;99082.94;;;29.49;58.53
59971;BME280;45825;45.434;9.116;2023-08-01T12:31:01;99079.66;;;29.47;58.69
59971;BME280;45825;45.434;9.116;2023-08-01T12:33:26;99082.16;;;29.49;59.49
59971;BME280;45825;45.434;9.116;2023-08-01T12:35:51;99083.91;;;29.43;59.75
59971;BME280;45825;45.434;9.116;2023-08-01T12:38:17;99079.06;;;29.33;59.41
59971;BME280;45825;45.434;9.116;2023-08-01T12:40:42;99063.06;;;29.44;60.32
59971;BME280;45825;45.434;9.116;2023-08-01T12:43:07;99067.06;;;29.53;59.40
59971;BME280;45825;45.434;9.116;2023-08-01T12:45:33;99061.63;;;29.65;60.13
59971;BME280;45825;45.434;9.116;2023-08-01T12:47:58;99055.78;;;29.73;59.64
59971;BME280;45825;45.434;9.116;2023-08-01T12:50:23;99050.97;;;29.75;59.65
59971;BME280;45825;45.434;9.116;2023-08-01T12:52:48;99054.81;;;29.91;58.27
59971;BME280;45825;45.434;9.116;2023-08-01T12:55:14;99051.66;;;30.11;57.61
59971;BME280;45825;45.434;9.116;2023-08-01T12:57:39;99044.84;;;30.26;58.28
59971;BME280;45825;45.434;9.116;2023-08-01T13:00:05;99047.28;;;30.57;56.48
59971;BME280;45825;45.434;9.116;2023-08-01T13:02:30;99034.81;;;30.95;55.69
59971;BME280;45825;45.434;9.116;2023-08-01T13:04:56;99036.75;;;31.17;54.57
59971;BME280;45825;45.434;9.116;2023-08-01T13:07:21;99033.31;;;31.44;53.97
59971;BME280;45825;45.434;9.116;2023-08-01T13:09:46;99030.50;;;31.83;52.89
59971;BME280;45825;45.434;9.116;2023-08-01T13:12:12;99024.75;;;32.07;51.57
59971;BME280;45825;45.434;9.116;2023-08-01T13:14:37;99029.28;;;32.24;51.37
59971;BME280;45825;45.434;9.116;2023-08-01T13:17:03;99031.25;;;31.78;52.02
59971;BME280;45825;45.434;9.116;2023-08-01T13:19:28;99026.69;;;32.07;50.75
59971;BME280;45825;45.434;9.116;2023-08-01T13:21:53;99015.25;;;32.37;50.12
59971;BME280;45825;45.434;9.116;2023-08-01T13:24:19;99013.41;;;32.43;50.21
59971;BME280;45825;45.434;9.116;2023-08-01T13:26:44;99012.16;;;32.28;49.39
59971;BME280;45825;45.434;9.116;2023-08-01T13:29:09;99004.69;;;32.41;49.77
59971;BME280;45825;45.434;9.116;2023-08-01T13:31:35;99008.31;;;32.24;50.01
59971;BME280;45825;45.434;9.116;2023-08-01T13:34:00;99004.75;;;32.51;49.72
59971;BME280;45825;45.434;9.116;2023-08-01T13:36:25;98994.41;;;32.48;48.80
59971;BME280;45825;45.434;9.116;2023-08-01T13:38:51;98997.13;;;32.48;49.07
59971;BME280;45825;45.434;9.116;2023-08-01T13:41:16;98981.81;;;32.37;49.28
59971;BME280;45825;45.434;9.116;2023-08-01T13:43:41;98990.31;;;32.18;49.64
59971;BME280;45825;45.434;9.116;2023-08-01T13:46:15;98984.59;;;32.14;49.93
59971;BME280;45825;45.434;9.116;2023-08-01T13:48:43;98982.53;;;31.99;48.93
59971;BME280;45825;45.434;9.116;2023-08-01T13:51:09;98978.50;;;32.02;50.05
59971;BME280;45825;45.434;9.116;2023-08-01T13:53:35;98985.53;;;31.70;49.98
59971;BME280;45825;45.434;9.116;2023-08-01T13:56:09;98977.97;;;31.77;50.36
59971;BME280;45825;45.434;9.116;2023-08-01T13:58:35;98989.19;;;31.81;49.78
59971;BME280;45825;45.434;9.116;2023-08-01T14:01:07;98978.66;;;31.90;49.83
59971;BME280;45825;45.434;9.116;2023-08-01T14:03:33;98981.03;;;31.81;48.32
59971;BME280;45825;45.434;9.116;2023-08-01T14:06:10;98993.41;;;31.72;49.32
59971;BME280;45825;45.434;9.116;2023-08-01T14:08:36;98982.69;;;31.60;49.49
59971;BME280;45825;45.434;9.116;2023-08-01T14:11:03;98967.72;;;31.35;48.85
59971;BME280;45825;45.434;9.116;2023-08-01T14:13:29;98968.25;;;31.32;50.23
59971;BME280;45825;45.434;9.116;2023-08-01T14:15:54;98983.91;;;31.25;50.49
59971;BME280;45825;45.434;9.116;2023-08-01T14:18:20;98972.03;;;31.31;50.89
59971;BME280;45825;45.434;9.116;2023-08-01T14:20:45;98958.78;;;31.34;49.81
59971;BME280;45825;45.434;9.116;2023-08-01T14:23:11;98965.13;;;31.45;50.57
59971;BME280;45825;45.434;9.116;2023-08-01T14:25:36;98956.94;;;31.40;50.44
59971;BME280;45825;45.434;9.116;2023-08-01T14:28:01;98956.50;;;31.26;48.97
59971;BME280;45825;45.434;9.116;2023-08-01T14:30:27;98960.47;;;31.18;50.38
59971;BME280;45825;45.434;9.116;2023-08-01T14:32:59;98955.66;;;31.26;49.58
59971;BME280;45825;45.434;9.116;2023-08-01T14:35:24;98962.94;;;31.42;50.47
59971;BME280;45825;45.434;9.116;2023-08-01T14:37:50;98952.38;;;31.46;50.25
59971;BME280;45825;45.434;9.116;2023-08-01T14:40:15;98942.75;;;31.60;49.83
59971;BME280;45825;45.434;9.116;2023-08-01T14:42:40;98952.00;;;31.64;49.21